sensor_id;sensor_type;location;lat;lon;timestamp;P1;durP1;ratioP1;P2;durP2;ratioP2
70342;SDS011;57767;42.068;24.752;2023-01-10T00:00:10;97.30;;;38.00;;
70342;SDS011;57767;42.068;24.752;2023-01-10T00:01:13;94.13;;;38.80;;
70342;SDS011;57767;42.068;24.752;2023-01-10T00:02:15;110.75;;;49.63;;
70342;SDS011;57767;42.068;24.752;2023-01-10T00:03:18;94.90;;;40.33;;
70342;SDS011;57767;42.068;24.752;2023-01-10T00:04:20;103.43;;;39.28;;
70342;SDS011;57767;42.068;24.752;2023-01-10T00:05:22;94.57;;;39.75;;
70342;SDS011;57767;42.068;24.752;2023-01-10T00:06:23;103.55;;;47.67;;
70342;SDS011;57767;42.068;24.752;2023-01-10T00:07:25;110.40;;;42.38;;
70342;SDS011;57767;42.068;24.752;2023-01-10T00:08:27;105.07;;;47.42;;
70342;SDS011;57767;42.068;24.752;2023-01-10T00:09:29;94.68;;;38.88;;
70342;SDS011;57767;42.068;24.752;2023-01-10T00:10:31;103.35;;;42.58;;
70342;SDS011;57767;42.068;24.752;2023-01-10T00:11:33;94.53;;;40.58;;
70342;SDS011;57767;42.068;24.752;2023-01-10T00:12:53;98.28;;;36.10;;
70342;SDS011;57767;42.068;24.752;2023-01-10T00:14:14;102.00;;;37.28;;
70342;SDS011;57767;42.068;24.752;2023-01-10T00:15:16;110.32;;;40.58;;
70342;SDS011;57767;42.068;24.752;2023-01-10T00:16:17;100.80;;;39.25;;
70342;SDS011;57767;42.068;24.752;2023-01-10T00:17:19;115.53;;;48.75;;
70342;SDS011;57767;42.068;24.752;2023-01-10T00:18:22;117.95;;;49.08;;
70342;SDS011;57767;42.068;24.752;2023-01-10T00:19:23;110.88;;;41.03;;
70342;SDS011;57767;42.068;24.752;2023-01-10T00:20:25;110.28;;;50.22;;
70342;SDS011;57767;42.068;24.752;2023-01-10T00:21:27;102.90;;;47.20;;
70342;SDS011;57767;42.068;24.752;2023-01-10T00:22:31;88.78;;;36.05;;
70342;SDS011;57767;42.068;24.752;2023-01-10T00:23:33;98.82;;;45.38;;
70342;SDS011;57767;42.068;24.752;2023-01-10T00:24:34;97.90;;;45.05;;
70342;SDS011;57767;42.068;24.752;2023-01-10T00:25:36;111.43;;;48.17;;
70342;SDS011;57767;42.068;24.752;2023-01-10T00:26:39;104.22;;;46.28;;
70342;SDS011;57767;42.068;24.752;2023-01-10T00:27:44;88.30;;;38.13;;
70342;SDS011;57767;42.068;24.752;2023-01-10T00:28:50;98.95;;;40.13;;
70342;SDS011;57767;42.068;24.752;2023-01-10T00:29:52;100.80;;;38.08;;
70342;SDS011;57767;42.068;24.752;2023-01-10T00:30:55;90.40;;;35.67;;
70342;SDS011;57767;42.068;24.752;2023-01-10T00:32:01;99.47;;;38.65;;
70342;SDS011;57767;42.068;24.752;2023-01-10T00:33:03;139.63;;;57.75;;
70342;SDS011;57767;42.068;24.752;2023-01-10T00:34:05;120.72;;;44.33;;
70342;SDS011;57767;42.068;24.752;2023-01-10T00:35:08;118.15;;;47.53;;
70342;SDS011;57767;42.068;24.752;2023-01-10T00:36:11;117.50;;;45.33;;
70342;SDS011;57767;42.068;24.752;2023-01-10T00:37:13;100.80;;;41.08;;
70342;SDS011;57767;42.068;24.752;2023-01-10T00:38:15;114.07;;;43.92;;
70342;SDS011;57767;42.068;24.752;2023-01-10T00:39:17;132.30;;;54.28;;
70342;SDS011;57767;42.068;24.752;2023-01-10T00:40:21;91.07;;;37.22;;
70342;SDS011;57767;42.068;24.752;2023-01-10T00:41:22;104.03;;;42.60;;
70342;SDS011;57767;42.068;24.752;2023-01-10T00:42:43;94.50;;;36.83;;
70342;SDS011;57767;42.068;24.752;2023-01-10T00:44:03;93.45;;;39.03;;
70342;SDS011;57767;42.068;24.752;2023-01-10T00:45:07;104.22;;;39.95;;
70342;SDS011;57767;42.068;24.752;2023-01-10T00:46:09;112.50;;;43.50;;
70342;SDS011;57767;42.068;24.752;2023-01-10T00:47:11;108.72;;;43.17;;
70342;SDS011;57767;42.068;24.752;2023-01-10T00:48:14;113.82;;;42.92;;
70342;SDS011;57767;42.068;24.752;2023-01-10T00:49:16;118.07;;;44.45;;
70342;SDS011;57767;42.068;24.752;2023-01-10T00:50:18;110.10;;;41.03;;
70342;SDS011;57767;42.068;24.752;2023-01-10T00:51:20;100.40;;;40.75;;
70342;SDS011;57767;42.068;24.752;2023-01-10T00:52:21;111.85;;;43.88;;
70342;SDS011;57767;42.068;24.752;2023-01-10T00:53:23;114.40;;;43.60;;
70342;SDS011;57767;42.068;24.752;2023-01-10T00:54:25;126.03;;;52.08;;
70342;SDS011;57767;42.068;24.752;2023-01-10T00:55:27;99.03;;;40.75;;
70342;SDS011;57767;42.068;24.752;2023-01-10T00:56:29;113.55;;;45.95;;
70342;SDS011;57767;42.068;24.752;2023-01-10T00:57:31;109.97;;;42.80;;
70342;SDS011;57767;42.068;24.752;2023-01-10T00:58:33;114.10;;;45.97;;
70342;SDS011;57767;42.068;24.752;2023-01-10T00:59:34;118.70;;;49.28;;
70342;SDS011;57767;42.068;24.752;2023-01-10T01:00:37;95.53;;;38.85;;
70342;SDS011;57767;42.068;24.752;2023-01-10T01:01:39;128.05;;;47.97;;
70342;SDS011;57767;42.068;24.752;2023-01-10T01:02:41;115.18;;;43.30;;
70342;SDS011;57767;42.068;24.752;2023-01-10T01:03:43;107.60;;;44.63;;
70342;SDS011;57767;42.068;24.752;2023-01-10T01:04:44;112.43;;;42.65;;
70342;SDS011;57767;42.068;24.752;2023-01-10T01:05:46;113.93;;;44.10;;
70342;SDS011;57767;42.068;24.752;2023-01-10T01:06:49;103.30;;;39.53;;
70342;SDS011;57767;42.068;24.752;2023-01-10T01:07:51;117.68;;;47.53;;
70342;SDS011;57767;42.068;24.752;2023-01-10T01:08:53;103.13;;;42.38;;
70342;SDS011;57767;42.068;24.752;2023-01-10T01:09:54;112.18;;;44.15;;
70342;SDS011;57767;42.068;24.752;2023-01-10T01:11:15;105.60;;;44.10;;
70342;SDS011;57767;42.068;24.752;2023-01-10T01:12:17;114.45;;;48.75;;
70342;SDS011;57767;42.068;24.752;2023-01-10T01:13:19;103.93;;;41.63;;
70342;SDS011;57767;42.068;24.752;2023-01-10T01:14:23;100.95;;;42.20;;
70342;SDS011;57767;42.068;24.752;2023-01-10T01:15:25;103.53;;;43.10;;
70342;SDS011;57767;42.068;24.752;2023-01-10T01:16:28;103.40;;;41.78;;
70342;SDS011;57767;42.068;24.752;2023-01-10T01:17:29;104.90;;;43.85;;
70342;SDS011;57767;42.068;24.752;2023-01-10T01:18:31;102.15;;;43.08;;
70342;SDS011;57767;42.068;24.752;2023-01-10T01:19:34;102.78;;;41.38;;
70342;SDS011;57767;42.068;24.752;2023-01-10T01:20:37;110.00;;;43.50;;
70342;SDS011;57767;42.068;24.752;2023-01-10T01:21:39;122.40;;;50.22;;
70342;SDS011;57767;42.068;24.752;2023-01-10T01:22:41;107.97;;;41.45;;
70342;SDS011;57767;42.068;24.752;2023-01-10T01:23:43;111.28;;;49.60;;
70342;SDS011;57767;42.068;24.752;2023-01-10T01:24:45;100.97;;;42.10;;
70342;SDS011;57767;42.068;24.752;2023-01-10T01:25:52;125.00;;;51.75;;
70342;SDS011;57767;42.068;24.752;2023-01-10T01:26:54;113.97;;;49.47;;
70342;SDS011;57767;42.068;24.752;2023-01-10T01:27:56;109.45;;;48.85;;
70342;SDS011;57767;42.068;24.752;2023-01-10T01:28:58;117.32;;;49.90;;
70342;SDS011;57767;42.068;24.752;2023-01-10T01:30:00;116.60;;;50.58;;
70342;SDS011;57767;42.068;24.752;2023-01-10T01:31:08;115.72;;;50.03;;
70342;SDS011;57767;42.068;24.752;2023-01-10T01:32:11;121.45;;;50.05;;
70342;SDS011;57767;42.068;24.752;2023-01-10T01:33:12;114.95;;;51.40;;
70342;SDS011;57767;42.068;24.752;2023-01-10T01:34:14;116.03;;;44.53;;
70342;SDS011;57767;42.068;24.752;2023-01-10T01:35:16;126.55;;;48.72;;
70342;SDS011;57767;42.068;24.752;2023-01-10T01:36:18;101.93;;;41.60;;
70342;SDS011;57767;42.068;24.752;2023-01-10T01:37:20;108.07;;;41.65;;
70342;SDS011;57767;42.068;24.752;2023-01-10T01:38:22;134.48;;;47.17;;
70342;SDS011;57767;42.068;24.752;2023-01-10T01:39:23;107.93;;;40.40;;
70342;SDS011;57767;42.068;24.752;2023-01-10T01:40:25;117.50;;;48.47;;
70342;SDS011;57767;42.068;24.752;2023-01-10T01:41:27;114.75;;;46.70;;
70342;SDS011;57767;42.068;24.752;2023-01-10T01:42:47;120.00;;;44.47;;
70342;SDS011;57767;42.068;24.752;2023-01-10T01:46:08;120.15;;;51.85;;
70342;SDS011;57767;42.068;24.752;2023-01-10T01:47:13;113.22;;;42.55;;
70342;SDS011;57767;42.068;24.752;2023-01-10T01:49:41;111.47;;;47.95;;
70342;SDS011;57767;42.068;24.752;2023-01-10T01:50:47;114.57;;;44.67;;
70342;SDS011;57767;42.068;24.752;2023-01-10T01:52:10;123.57;;;44.90;;
70342;SDS011;57767;42.068;24.752;2023-01-10T01:53:42;113.93;;;44.15;;
70342;SDS011;57767;42.068;24.752;2023-01-10T01:54:44;125.10;;;45.88;;
70342;SDS011;57767;42.068;24.752;2023-01-10T01:55:46;112.15;;;46.40;;
70342;SDS011;57767;42.068;24.752;2023-01-10T01:56:50;141.80;;;57.97;;
70342;SDS011;57767;42.068;24.752;2023-01-10T01:57:57;112.30;;;44.63;;
70342;SDS011;57767;42.068;24.752;2023-01-10T01:59:06;113.43;;;43.70;;
70342;SDS011;57767;42.068;24.752;2023-01-10T02:00:12;116.00;;;46.30;;
70342;SDS011;57767;42.068;24.752;2023-01-10T02:01:15;112.38;;;43.75;;
70342;SDS011;57767;42.068;24.752;2023-01-10T02:02:22;112.63;;;42.55;;
70342;SDS011;57767;42.068;24.752;2023-01-10T02:03:29;105.85;;;39.92;;
70342;SDS011;57767;42.068;24.752;2023-01-10T02:04:34;119.72;;;44.28;;
70342;SDS011;57767;42.068;24.752;2023-01-10T02:05:49;103.15;;;43.47;;
70342;SDS011;57767;42.068;24.752;2023-01-10T02:06:51;117.32;;;43.95;;
70342;SDS011;57767;42.068;24.752;2023-01-10T02:07:56;127.40;;;53.65;;
70342;SDS011;57767;42.068;24.752;2023-01-10T02:10:32;139.93;;;52.53;;
70342;SDS011;57767;42.068;24.752;2023-01-10T02:11:41;125.70;;;46.92;;
70342;SDS011;57767;42.068;24.752;2023-01-10T02:12:43;118.80;;;46.38;;
70342;SDS011;57767;42.068;24.752;2023-01-10T02:13:46;112.88;;;43.53;;
70342;SDS011;57767;42.068;24.752;2023-01-10T02:14:50;114.50;;;42.17;;
70342;SDS011;57767;42.068;24.752;2023-01-10T02:15:53;103.90;;;43.10;;
70342;SDS011;57767;42.068;24.752;2023-01-10T02:16:55;104.35;;;42.38;;
70342;SDS011;57767;42.068;24.752;2023-01-10T02:17:56;106.60;;;40.55;;
70342;SDS011;57767;42.068;24.752;2023-01-10T02:19:03;114.93;;;44.00;;
70342;SDS011;57767;42.068;24.752;2023-01-10T02:20:16;123.82;;;50.75;;
70342;SDS011;57767;42.068;24.752;2023-01-10T02:27:25;113.90;;;42.42;;
70342;SDS011;57767;42.068;24.752;2023-01-10T02:34:28;109.95;;;44.25;;
70342;SDS011;57767;42.068;24.752;2023-01-10T02:35:39;119.30;;;46.80;;
70342;SDS011;57767;42.068;24.752;2023-01-10T02:37:04;113.32;;;44.90;;
70342;SDS011;57767;42.068;24.752;2023-01-10T02:42:07;123.65;;;50.15;;
70342;SDS011;57767;42.068;24.752;2023-01-10T02:43:19;111.65;;;41.05;;
70342;SDS011;57767;42.068;24.752;2023-01-10T02:44:28;100.75;;;40.67;;
70342;SDS011;57767;42.068;24.752;2023-01-10T02:45:43;117.32;;;43.85;;
70342;SDS011;57767;42.068;24.752;2023-01-10T02:46:50;128.25;;;46.22;;
70342;SDS011;57767;42.068;24.752;2023-01-10T02:47:52;115.78;;;42.15;;
70342;SDS011;57767;42.068;24.752;2023-01-10T02:48:56;106.07;;;40.17;;
70342;SDS011;57767;42.068;24.752;2023-01-10T02:49:58;114.00;;;41.50;;
70342;SDS011;57767;42.068;24.752;2023-01-10T02:51:31;118.82;;;44.17;;
70342;SDS011;57767;42.068;24.752;2023-01-10T02:52:35;99.57;;;40.45;;
70342;SDS011;57767;42.068;24.752;2023-01-10T02:53:38;106.30;;;39.35;;
70342;SDS011;57767;42.068;24.752;2023-01-10T02:54:44;106.07;;;42.80;;
70342;SDS011;57767;42.068;24.752;2023-01-10T03:01:00;115.18;;;44.63;;
70342;SDS011;57767;42.068;24.752;2023-01-10T03:02:44;123.13;;;45.38;;
70342;SDS011;57767;42.068;24.752;2023-01-10T03:06:55;113.53;;;43.22;;
70342;SDS011;57767;42.068;24.752;2023-01-10T03:10:21;121.55;;;45.55;;
70342;SDS011;57767;42.068;24.752;2023-01-10T03:11:19;92.50;;;37.88;;
70342;SDS011;57767;42.068;24.752;2023-01-10T03:12:46;111.18;;;41.25;;
70342;SDS011;57767;42.068;24.752;2023-01-10T03:13:56;126.25;;;42.78;;
70342;SDS011;57767;42.068;24.752;2023-01-10T03:15:03;110.20;;;42.13;;
70342;SDS011;57767;42.068;24.752;2023-01-10T03:16:07;120.45;;;45.20;;
70342;SDS011;57767;42.068;24.752;2023-01-10T03:17:13;128.63;;;46.25;;
70342;SDS011;57767;42.068;24.752;2023-01-10T03:18:19;123.75;;;46.13;;
70342;SDS011;57767;42.068;24.752;2023-01-10T03:19:30;119.40;;;44.13;;
70342;SDS011;57767;42.068;24.752;2023-01-10T03:20:35;122.28;;;47.72;;
70342;SDS011;57767;42.068;24.752;2023-01-10T03:21:40;124.82;;;45.60;;
70342;SDS011;57767;42.068;24.752;2023-01-10T03:22:44;119.38;;;43.20;;
70342;SDS011;57767;42.068;24.752;2023-01-10T03:23:48;121.45;;;46.67;;
70342;SDS011;57767;42.068;24.752;2023-01-10T03:24:53;111.88;;;42.10;;
70342;SDS011;57767;42.068;24.752;2023-01-10T03:25:58;111.70;;;44.25;;
70342;SDS011;57767;42.068;24.752;2023-01-10T03:28:38;112.28;;;43.00;;
70342;SDS011;57767;42.068;24.752;2023-01-10T03:30:04;123.15;;;41.75;;
70342;SDS011;57767;42.068;24.752;2023-01-10T03:31:17;110.63;;;38.13;;
70342;SDS011;57767;42.068;24.752;2023-01-10T03:32:29;120.65;;;44.40;;
70342;SDS011;57767;42.068;24.752;2023-01-10T03:33:32;110.90;;;40.17;;
70342;SDS011;57767;42.068;24.752;2023-01-10T03:34:35;141.68;;;53.20;;
70342;SDS011;57767;42.068;24.752;2023-01-10T03:38:46;113.22;;;41.83;;
70342;SDS011;57767;42.068;24.752;2023-01-10T03:41:25;123.63;;;41.47;;
70342;SDS011;57767;42.068;24.752;2023-01-10T03:42:46;126.80;;;44.65;;
70342;SDS011;57767;42.068;24.752;2023-01-10T03:45:48;121.38;;;41.22;;
70342;SDS011;57767;42.068;24.752;2023-01-10T03:48:10;145.98;;;47.88;;
70342;SDS011;57767;42.068;24.752;2023-01-10T03:49:16;132.82;;;45.70;;
70342;SDS011;57767;42.068;24.752;2023-01-10T03:50:21;147.73;;;48.92;;
70342;SDS011;57767;42.068;24.752;2023-01-10T03:51:25;142.38;;;50.10;;
70342;SDS011;57767;42.068;24.752;2023-01-10T03:52:28;142.80;;;48.10;;
70342;SDS011;57767;42.068;24.752;2023-01-10T03:53:33;144.02;;;45.65;;
70342;SDS011;57767;42.068;24.752;2023-01-10T03:54:37;134.57;;;45.95;;
70342;SDS011;57767;42.068;24.752;2023-01-10T03:55:39;135.88;;;44.85;;
70342;SDS011;57767;42.068;24.752;2023-01-10T03:56:46;141.38;;;49.10;;
70342;SDS011;57767;42.068;24.752;2023-01-10T03:57:52;159.00;;;59.42;;
70342;SDS011;57767;42.068;24.752;2023-01-10T03:58:54;161.88;;;58.28;;
70342;SDS011;57767;42.068;24.752;2023-01-10T03:59:56;152.27;;;57.35;;
70342;SDS011;57767;42.068;24.752;2023-01-10T04:00:59;134.18;;;44.10;;
70342;SDS011;57767;42.068;24.752;2023-01-10T04:02:01;134.13;;;48.75;;
70342;SDS011;57767;42.068;24.752;2023-01-10T04:03:03;130.30;;;45.78;;
70342;SDS011;57767;42.068;24.752;2023-01-10T04:04:05;135.95;;;51.55;;
70342;SDS011;57767;42.068;24.752;2023-01-10T04:05:07;137.02;;;48.05;;
70342;SDS011;57767;42.068;24.752;2023-01-10T04:06:09;147.70;;;56.00;;
70342;SDS011;57767;42.068;24.752;2023-01-10T04:07:11;159.95;;;57.38;;
70342;SDS011;57767;42.068;24.752;2023-01-10T04:08:13;151.80;;;57.08;;
70342;SDS011;57767;42.068;24.752;2023-01-10T04:09:15;170.55;;;60.83;;
70342;SDS011;57767;42.068;24.752;2023-01-10T04:10:17;162.60;;;58.72;;
70342;SDS011;57767;42.068;24.752;2023-01-10T04:11:19;148.60;;;48.15;;
70342;SDS011;57767;42.068;24.752;2023-01-10T04:12:20;162.23;;;60.75;;
70342;SDS011;57767;42.068;24.752;2023-01-10T04:13:22;166.55;;;57.47;;
70342;SDS011;57767;42.068;24.752;2023-01-10T04:14:24;156.05;;;58.72;;
70342;SDS011;57767;42.068;24.752;2023-01-10T04:15:26;130.68;;;45.88;;
70342;SDS011;57767;42.068;24.752;2023-01-10T04:16:27;122.53;;;42.08;;
70342;SDS011;57767;42.068;24.752;2023-01-10T04:17:29;136.95;;;46.78;;
70342;SDS011;57767;42.068;24.752;2023-01-10T04:18:31;118.60;;;40.38;;
70342;SDS011;57767;42.068;24.752;2023-01-10T04:19:33;121.22;;;44.63;;
70342;SDS011;57767;42.068;24.752;2023-01-10T04:20:35;119.22;;;45.60;;
70342;SDS011;57767;42.068;24.752;2023-01-10T04:21:36;87.88;;;35.28;;
70342;SDS011;57767;42.068;24.752;2023-01-10T04:22:38;113.30;;;42.30;;
70342;SDS011;57767;42.068;24.752;2023-01-10T04:23:40;105.50;;;41.63;;
70342;SDS011;57767;42.068;24.752;2023-01-10T04:24:41;97.18;;;35.15;;
70342;SDS011;57767;42.068;24.752;2023-01-10T04:25:47;99.45;;;34.95;;
70342;SDS011;57767;42.068;24.752;2023-01-10T04:26:49;89.80;;;33.20;;
70342;SDS011;57767;42.068;24.752;2023-01-10T04:27:51;87.35;;;34.33;;
70342;SDS011;57767;42.068;24.752;2023-01-10T04:28:53;82.22;;;29.45;;
70342;SDS011;57767;42.068;24.752;2023-01-10T04:29:54;78.47;;;29.35;;
70342;SDS011;57767;42.068;24.752;2023-01-10T04:30:56;76.97;;;29.80;;
70342;SDS011;57767;42.068;24.752;2023-01-10T04:31:58;73.47;;;29.15;;
70342;SDS011;57767;42.068;24.752;2023-01-10T04:33:00;76.50;;;28.83;;
70342;SDS011;57767;42.068;24.752;2023-01-10T04:34:01;81.38;;;34.25;;
70342;SDS011;57767;42.068;24.752;2023-01-10T04:35:03;114.55;;;42.17;;
70342;SDS011;57767;42.068;24.752;2023-01-10T04:36:05;112.18;;;43.78;;
70342;SDS011;57767;42.068;24.752;2023-01-10T04:37:07;138.02;;;55.60;;
70342;SDS011;57767;42.068;24.752;2023-01-10T04:38:09;161.88;;;59.22;;
70342;SDS011;57767;42.068;24.752;2023-01-10T04:39:11;173.18;;;59.85;;
70342;SDS011;57767;42.068;24.752;2023-01-10T04:40:13;145.20;;;47.42;;
70342;SDS011;57767;42.068;24.752;2023-01-10T04:41:17;132.35;;;46.80;;
70342;SDS011;57767;42.068;24.752;2023-01-10T04:42:19;145.95;;;57.70;;
70342;SDS011;57767;42.068;24.752;2023-01-10T04:43:21;133.05;;;49.03;;
70342;SDS011;57767;42.068;24.752;2023-01-10T04:44:23;155.93;;;60.80;;
70342;SDS011;57767;42.068;24.752;2023-01-10T04:45:25;145.18;;;47.53;;
70342;SDS011;57767;42.068;24.752;2023-01-10T04:46:26;142.00;;;52.45;;
70342;SDS011;57767;42.068;24.752;2023-01-10T04:47:28;130.77;;;48.90;;
70342;SDS011;57767;42.068;24.752;2023-01-10T04:48:30;141.02;;;48.08;;
70342;SDS011;57767;42.068;24.752;2023-01-10T04:49:32;153.32;;;52.55;;
70342;SDS011;57767;42.068;24.752;2023-01-10T04:50:34;151.73;;;55.03;;
70342;SDS011;57767;42.068;24.752;2023-01-10T04:51:35;123.25;;;47.35;;
70342;SDS011;57767;42.068;24.752;2023-01-10T04:52:37;149.60;;;52.03;;
70342;SDS011;57767;42.068;24.752;2023-01-10T04:53:39;139.38;;;49.05;;
70342;SDS011;57767;42.068;24.752;2023-01-10T04:54:41;162.07;;;60.05;;
70342;SDS011;57767;42.068;24.752;2023-01-10T04:55:43;157.82;;;59.42;;
70342;SDS011;57767;42.068;24.752;2023-01-10T04:56:44;142.75;;;46.70;;
70342;SDS011;57767;42.068;24.752;2023-01-10T04:57:46;173.50;;;58.85;;
70342;SDS011;57767;42.068;24.752;2023-01-10T04:58:48;151.95;;;48.78;;
70342;SDS011;57767;42.068;24.752;2023-01-10T04:59:53;154.65;;;57.33;;
70342;SDS011;57767;42.068;24.752;2023-01-10T05:00:55;159.50;;;55.83;;
70342;SDS011;57767;42.068;24.752;2023-01-10T05:01:57;156.32;;;56.65;;
70342;SDS011;57767;42.068;24.752;2023-01-10T05:02:59;130.10;;;46.22;;
70342;SDS011;57767;42.068;24.752;2023-01-10T05:04:01;158.52;;;52.30;;
70342;SDS011;57767;42.068;24.752;2023-01-10T05:05:03;170.40;;;60.28;;
70342;SDS011;57767;42.068;24.752;2023-01-10T05:06:05;142.07;;;50.00;;
70342;SDS011;57767;42.068;24.752;2023-01-10T05:07:07;161.32;;;57.35;;
70342;SDS011;57767;42.068;24.752;2023-01-10T05:08:09;153.80;;;49.58;;
70342;SDS011;57767;42.068;24.752;2023-01-10T05:09:11;167.70;;;63.17;;
70342;SDS011;57767;42.068;24.752;2023-01-10T05:10:13;177.27;;;57.17;;
70342;SDS011;57767;42.068;24.752;2023-01-10T05:11:15;181.35;;;59.15;;
70342;SDS011;57767;42.068;24.752;2023-01-10T05:12:16;155.80;;;52.28;;
70342;SDS011;57767;42.068;24.752;2023-01-10T05:13:18;163.25;;;54.60;;
70342;SDS011;57767;42.068;24.752;2023-01-10T05:14:20;196.48;;;71.88;;
70342;SDS011;57767;42.068;24.752;2023-01-10T05:15:22;221.48;;;77.88;;
70342;SDS011;57767;42.068;24.752;2023-01-10T05:16:23;218.05;;;76.88;;
70342;SDS011;57767;42.068;24.752;2023-01-10T05:17:25;207.20;;;74.38;;
70342;SDS011;57767;42.068;24.752;2023-01-10T05:18:28;155.15;;;52.70;;
70342;SDS011;57767;42.068;24.752;2023-01-10T05:19:30;172.13;;;59.22;;
70342;SDS011;57767;42.068;24.752;2023-01-10T05:20:32;176.82;;;59.05;;
70342;SDS011;57767;42.068;24.752;2023-01-10T05:21:33;187.27;;;65.40;;
70342;SDS011;57767;42.068;24.752;2023-01-10T05:22:35;149.40;;;52.30;;
70342;SDS011;57767;42.068;24.752;2023-01-10T05:23:37;181.18;;;54.85;;
70342;SDS011;57767;42.068;24.752;2023-01-10T05:24:39;142.10;;;51.83;;
70342;SDS011;57767;42.068;24.752;2023-01-10T05:25:41;168.60;;;56.65;;
70342;SDS011;57767;42.068;24.752;2023-01-10T05:26:43;180.10;;;64.03;;
70342;SDS011;57767;42.068;24.752;2023-01-10T05:27:45;188.48;;;65.43;;
70342;SDS011;57767;42.068;24.752;2023-01-10T05:28:46;146.25;;;49.08;;
70342;SDS011;57767;42.068;24.752;2023-01-10T05:29:48;184.50;;;64.20;;
70342;SDS011;57767;42.068;24.752;2023-01-10T05:30:50;139.63;;;47.05;;
70342;SDS011;57767;42.068;24.752;2023-01-10T05:31:52;130.98;;;48.80;;
70342;SDS011;57767;42.068;24.752;2023-01-10T05:32:54;160.15;;;54.90;;
70342;SDS011;57767;42.068;24.752;2023-01-10T05:33:56;163.68;;;55.17;;
70342;SDS011;57767;42.068;24.752;2023-01-10T05:34:57;144.25;;;53.17;;
70342;SDS011;57767;42.068;24.752;2023-01-10T05:36:00;157.32;;;65.82;;
70342;SDS011;57767;42.068;24.752;2023-01-10T05:37:02;134.65;;;52.05;;
70342;SDS011;57767;42.068;24.752;2023-01-10T05:38:04;160.05;;;61.13;;
70342;SDS011;57767;42.068;24.752;2023-01-10T05:39:06;189.40;;;69.78;;
70342;SDS011;57767;42.068;24.752;2023-01-10T05:40:08;166.75;;;70.40;;
70342;SDS011;57767;42.068;24.752;2023-01-10T05:41:10;161.30;;;55.60;;
70342;SDS011;57767;42.068;24.752;2023-01-10T05:42:12;165.60;;;64.32;;
70342;SDS011;57767;42.068;24.752;2023-01-10T05:43:14;171.50;;;63.20;;
70342;SDS011;57767;42.068;24.752;2023-01-10T05:44:15;158.40;;;58.88;;
70342;SDS011;57767;42.068;24.752;2023-01-10T05:45:17;162.63;;;59.33;;
70342;SDS011;57767;42.068;24.752;2023-01-10T05:46:19;138.13;;;49.58;;
70342;SDS011;57767;42.068;24.752;2023-01-10T05:47:21;181.15;;;65.07;;
70342;SDS011;57767;42.068;24.752;2023-01-10T05:48:23;158.38;;;52.50;;
70342;SDS011;57767;42.068;24.752;2023-01-10T05:49:24;177.88;;;59.88;;
70342;SDS011;57767;42.068;24.752;2023-01-10T05:50:26;169.07;;;54.58;;
70342;SDS011;57767;42.068;24.752;2023-01-10T05:51:28;186.32;;;64.55;;
70342;SDS011;57767;42.068;24.752;2023-01-10T05:52:30;186.02;;;64.70;;
70342;SDS011;57767;42.068;24.752;2023-01-10T05:53:32;161.45;;;50.03;;
70342;SDS011;57767;42.068;24.752;2023-01-10T05:54:33;160.18;;;57.60;;
70342;SDS011;57767;42.068;24.752;2023-01-10T05:55:35;168.43;;;61.15;;
70342;SDS011;57767;42.068;24.752;2023-01-10T05:56:37;160.77;;;56.90;;
70342;SDS011;57767;42.068;24.752;2023-01-10T05:57:39;147.15;;;47.65;;
70342;SDS011;57767;42.068;24.752;2023-01-10T05:58:40;139.00;;;48.40;;
70342;SDS011;57767;42.068;24.752;2023-01-10T05:59:42;138.32;;;46.20;;
70342;SDS011;57767;42.068;24.752;2023-01-10T06:00:44;148.45;;;53.58;;
70342;SDS011;57767;42.068;24.752;2023-01-10T06:01:46;157.73;;;56.28;;
70342;SDS011;57767;42.068;24.752;2023-01-10T06:02:47;124.88;;;43.97;;
70342;SDS011;57767;42.068;24.752;2023-01-10T06:03:49;150.60;;;57.58;;
70342;SDS011;57767;42.068;24.752;2023-01-10T06:04:51;160.43;;;58.17;;
70342;SDS011;57767;42.068;24.752;2023-01-10T06:05:55;129.65;;;41.55;;
70342;SDS011;57767;42.068;24.752;2023-01-10T06:06:57;166.85;;;58.08;;
70342;SDS011;57767;42.068;24.752;2023-01-10T06:07:59;161.30;;;61.25;;
70342;SDS011;57767;42.068;24.752;2023-01-10T06:09:01;155.77;;;48.85;;
70342;SDS011;57767;42.068;24.752;2023-01-10T06:10:03;161.35;;;63.72;;
70342;SDS011;57767;42.068;24.752;2023-01-10T06:11:05;185.20;;;67.35;;
70342;SDS011;57767;42.068;24.752;2023-01-10T06:12:07;182.32;;;56.60;;
70342;SDS011;57767;42.068;24.752;2023-01-10T06:13:09;168.27;;;57.65;;
70342;SDS011;57767;42.068;24.752;2023-01-10T06:14:12;189.20;;;68.35;;
70342;SDS011;57767;42.068;24.752;2023-01-10T06:15:19;180.32;;;67.68;;
70342;SDS011;57767;42.068;24.752;2023-01-10T06:16:21;185.35;;;69.60;;
70342;SDS011;57767;42.068;24.752;2023-01-10T06:17:23;178.65;;;71.45;;
70342;SDS011;57767;42.068;24.752;2023-01-10T06:18:25;246.63;;;90.40;;
70342;SDS011;57767;42.068;24.752;2023-01-10T06:19:27;194.35;;;75.57;;
70342;SDS011;57767;42.068;24.752;2023-01-10T06:20:29;159.57;;;57.22;;
70342;SDS011;57767;42.068;24.752;2023-01-10T06:21:31;153.45;;;58.78;;
70342;SDS011;57767;42.068;24.752;2023-01-10T06:22:32;159.23;;;60.72;;
70342;SDS011;57767;42.068;24.752;2023-01-10T06:23:34;147.35;;;56.60;;
70342;SDS011;57767;42.068;24.752;2023-01-10T06:24:36;146.30;;;56.70;;
70342;SDS011;57767;42.068;24.752;2023-01-10T06:25:38;144.65;;;57.28;;
70342;SDS011;57767;42.068;24.752;2023-01-10T06:26:43;186.77;;;68.85;;
70342;SDS011;57767;42.068;24.752;2023-01-10T06:27:44;161.48;;;58.38;;
70342;SDS011;57767;42.068;24.752;2023-01-10T06:28:46;162.40;;;56.13;;
70342;SDS011;57767;42.068;24.752;2023-01-10T06:29:48;169.00;;;60.67;;
70342;SDS011;57767;42.068;24.752;2023-01-10T06:30:50;177.50;;;66.10;;
70342;SDS011;57767;42.068;24.752;2023-01-10T06:31:51;190.43;;;70.10;;
70342;SDS011;57767;42.068;24.752;2023-01-10T06:32:57;169.25;;;58.08;;
70342;SDS011;57767;42.068;24.752;2023-01-10T06:34:01;192.38;;;68.40;;
70342;SDS011;57767;42.068;24.752;2023-01-10T06:35:03;206.30;;;69.68;;
70342;SDS011;57767;42.068;24.752;2023-01-10T06:36:05;194.18;;;72.20;;
70342;SDS011;57767;42.068;24.752;2023-01-10T06:37:08;180.80;;;60.13;;
70342;SDS011;57767;42.068;24.752;2023-01-10T06:38:09;168.57;;;57.75;;
70342;SDS011;57767;42.068;24.752;2023-01-10T06:39:11;218.77;;;74.60;;
70342;SDS011;57767;42.068;24.752;2023-01-10T06:40:13;202.43;;;64.07;;
70342;SDS011;57767;42.068;24.752;2023-01-10T06:41:15;183.77;;;58.13;;
70342;SDS011;57767;42.068;24.752;2023-01-10T06:42:17;215.88;;;61.55;;
70342;SDS011;57767;42.068;24.752;2023-01-10T06:43:18;205.98;;;72.55;;
70342;SDS011;57767;42.068;24.752;2023-01-10T06:44:20;216.88;;;73.78;;